Aviation Digital Data Service (ADDS)

Output produced by TAFs form (1711 UTC 26 July 2014)
found at http://aviationweather.gov/adds/tafs/
 
KELP 261127Z 2612/2712 18006KT P6SM SKC 
     FM262200 10008KT P6SM FEW100